sensor_id;sensor_type;location;lat;lon;timestamp;P1;durP1;ratioP1;P2;durP2;ratioP2
42912;SDS011;50720;54.324;18.558;2023-11-19T00:00:27;30.90;;;18.45;;
42912;SDS011;50720;54.324;18.558;2023-11-19T00:03:10;41.72;;;21.40;;
42912;SDS011;50720;54.324;18.558;2023-11-19T00:05:54;36.33;;;18.60;;
42912;SDS011;50720;54.324;18.558;2023-11-19T00:08:39;34.80;;;18.55;;
42912;SDS011;50720;54.324;18.558;2023-11-19T00:11:23;35.20;;;18.30;;
42912;SDS011;50720;54.324;18.558;2023-11-19T00:14:06;36.78;;;18.10;;
42912;SDS011;50720;54.324;18.558;2023-11-19T00:16:50;35.72;;;17.70;;
42912;SDS011;50720;54.324;18.558;2023-11-19T00:19:35;41.28;;;18.95;;
42912;SDS011;50720;54.324;18.558;2023-11-19T00:22:18;41.45;;;18.67;;
42912;SDS011;50720;54.324;18.558;2023-11-19T00:25:05;41.03;;;20.92;;
42912;SDS011;50720;54.324;18.558;2023-11-19T00:27:50;34.65;;;17.48;;
42912;SDS011;50720;54.324;18.558;2023-11-19T00:30:36;34.58;;;17.55;;
42912;SDS011;50720;54.324;18.558;2023-11-19T00:33:19;43.33;;;18.70;;
42912;SDS011;50720;54.324;18.558;2023-11-19T00:36:03;36.42;;;17.48;;
42912;SDS011;50720;54.324;18.558;2023-11-19T00:38:47;37.60;;;18.10;;
42912;SDS011;50720;54.324;18.558;2023-11-19T00:41:31;33.13;;;17.38;;
42912;SDS011;50720;54.324;18.558;2023-11-19T00:44:15;38.35;;;17.95;;
42912;SDS011;50720;54.324;18.558;2023-11-19T00:46:58;34.15;;;17.60;;
42912;SDS011;50720;54.324;18.558;2023-11-19T00:49:42;36.58;;;15.43;;
42912;SDS011;50720;54.324;18.558;2023-11-19T00:52:25;29.00;;;16.48;;
42912;SDS011;50720;54.324;18.558;2023-11-19T00:55:09;35.00;;;15.85;;
42912;SDS011;50720;54.324;18.558;2023-11-19T00:57:54;35.63;;;17.98;;
42912;SDS011;50720;54.324;18.558;2023-11-19T01:00:38;33.05;;;16.33;;
42912;SDS011;50720;54.324;18.558;2023-11-19T01:03:21;36.47;;;18.08;;
42912;SDS011;50720;54.324;18.558;2023-11-19T01:06:05;33.15;;;16.63;;
42912;SDS011;50720;54.324;18.558;2023-11-19T01:08:49;32.63;;;17.15;;
42912;SDS011;50720;54.324;18.558;2023-11-19T01:11:34;30.63;;;16.40;;
42912;SDS011;50720;54.324;18.558;2023-11-19T01:14:19;33.08;;;16.98;;
42912;SDS011;50720;54.324;18.558;2023-11-19T01:17:03;32.25;;;17.38;;
42912;SDS011;50720;54.324;18.558;2023-11-19T01:19:47;33.90;;;16.67;;
42912;SDS011;50720;54.324;18.558;2023-11-19T01:22:31;36.15;;;17.95;;
42912;SDS011;50720;54.324;18.558;2023-11-19T01:25:15;31.98;;;16.08;;
42912;SDS011;50720;54.324;18.558;2023-11-19T01:27:59;37.78;;;16.42;;
42912;SDS011;50720;54.324;18.558;2023-11-19T01:30:45;32.33;;;16.67;;
42912;SDS011;50720;54.324;18.558;2023-11-19T01:33:29;35.78;;;17.98;;
42912;SDS011;50720;54.324;18.558;2023-11-19T01:36:12;33.72;;;17.98;;
42912;SDS011;50720;54.324;18.558;2023-11-19T01:38:56;31.33;;;16.77;;
42912;SDS011;50720;54.324;18.558;2023-11-19T01:41:39;37.30;;;17.15;;
42912;SDS011;50720;54.324;18.558;2023-11-19T01:44:22;31.90;;;15.70;;
42912;SDS011;50720;54.324;18.558;2023-11-19T01:47:07;32.30;;;16.67;;
42912;SDS011;50720;54.324;18.558;2023-11-19T01:49:51;34.53;;;16.33;;
42912;SDS011;50720;54.324;18.558;2023-11-19T01:52:35;29.45;;;15.23;;
42912;SDS011;50720;54.324;18.558;2023-11-19T01:55:20;27.05;;;14.13;;
42912;SDS011;50720;54.324;18.558;2023-11-19T01:58:05;27.70;;;14.55;;
42912;SDS011;50720;54.324;18.558;2023-11-19T02:00:50;23.83;;;12.27;;
42912;SDS011;50720;54.324;18.558;2023-11-19T02:03:36;25.85;;;13.23;;
42912;SDS011;50720;54.324;18.558;2023-11-19T02:06:20;28.77;;;15.13;;
42912;SDS011;50720;54.324;18.558;2023-11-19T02:09:04;29.27;;;15.77;;
42912;SDS011;50720;54.324;18.558;2023-11-19T02:11:49;24.05;;;12.93;;
42912;SDS011;50720;54.324;18.558;2023-11-19T02:14:33;26.58;;;12.70;;
42912;SDS011;50720;54.324;18.558;2023-11-19T02:17:26;23.42;;;13.10;;
42912;SDS011;50720;54.324;18.558;2023-11-19T02:20:12;21.30;;;11.65;;
42912;SDS011;50720;54.324;18.558;2023-11-19T02:22:56;24.83;;;12.90;;
42912;SDS011;50720;54.324;18.558;2023-11-19T02:25:40;21.27;;;12.10;;
42912;SDS011;50720;54.324;18.558;2023-11-19T02:28:25;25.17;;;11.50;;
42912;SDS011;50720;54.324;18.558;2023-11-19T02:31:09;25.38;;;12.10;;
42912;SDS011;50720;54.324;18.558;2023-11-19T02:33:53;24.35;;;13.18;;
42912;SDS011;50720;54.324;18.558;2023-11-19T02:36:36;25.85;;;12.25;;
42912;SDS011;50720;54.324;18.558;2023-11-19T02:39:22;25.77;;;13.15;;
42912;SDS011;50720;54.324;18.558;2023-11-19T02:42:06;27.95;;;13.70;;
42912;SDS011;50720;54.324;18.558;2023-11-19T02:44:51;26.17;;;13.48;;
42912;SDS011;50720;54.324;18.558;2023-11-19T02:47:34;26.77;;;13.32;;
42912;SDS011;50720;54.324;18.558;2023-11-19T02:50:18;26.52;;;12.88;;
42912;SDS011;50720;54.324;18.558;2023-11-19T02:53:06;27.02;;;14.02;;
42912;SDS011;50720;54.324;18.558;2023-11-19T02:55:50;31.83;;;15.82;;
42912;SDS011;50720;54.324;18.558;2023-11-19T02:58:34;29.95;;;14.98;;
42912;SDS011;50720;54.324;18.558;2023-11-19T03:01:22;34.35;;;16.75;;
42912;SDS011;50720;54.324;18.558;2023-11-19T03:04:12;31.33;;;16.40;;
42912;SDS011;50720;54.324;18.558;2023-11-19T03:06:58;32.08;;;17.23;;
42912;SDS011;50720;54.324;18.558;2023-11-19T03:09:42;32.72;;;15.70;;
42912;SDS011;50720;54.324;18.558;2023-11-19T03:12:25;28.10;;;15.60;;
42912;SDS011;50720;54.324;18.558;2023-11-19T03:15:09;30.15;;;17.13;;
42912;SDS011;50720;54.324;18.558;2023-11-19T03:17:54;32.17;;;16.00;;
42912;SDS011;50720;54.324;18.558;2023-11-19T03:20:38;34.03;;;16.85;;
42912;SDS011;50720;54.324;18.558;2023-11-19T03:23:22;34.10;;;17.95;;
42912;SDS011;50720;54.324;18.558;2023-11-19T03:26:05;32.00;;;16.45;;
42912;SDS011;50720;54.324;18.558;2023-11-19T03:28:49;33.83;;;17.95;;
42912;SDS011;50720;54.324;18.558;2023-11-19T03:31:33;38.22;;;18.85;;
42912;SDS011;50720;54.324;18.558;2023-11-19T03:34:18;40.08;;;19.55;;
42912;SDS011;50720;54.324;18.558;2023-11-19T03:37:01;33.67;;;18.90;;
42912;SDS011;50720;54.324;18.558;2023-11-19T03:39:46;35.15;;;19.20;;
42912;SDS011;50720;54.324;18.558;2023-11-19T03:42:29;36.47;;;18.63;;
42912;SDS011;50720;54.324;18.558;2023-11-19T03:45:13;35.38;;;17.55;;
42912;SDS011;50720;54.324;18.558;2023-11-19T03:47:57;35.00;;;17.85;;
42912;SDS011;50720;54.324;18.558;2023-11-19T03:50:42;38.20;;;16.73;;
42912;SDS011;50720;54.324;18.558;2023-11-19T03:53:25;40.92;;;19.63;;
42912;SDS011;50720;54.324;18.558;2023-11-19T03:56:09;37.28;;;19.17;;
42912;SDS011;50720;54.324;18.558;2023-11-19T03:58:52;33.45;;;17.85;;
42912;SDS011;50720;54.324;18.558;2023-11-19T04:01:36;35.58;;;18.35;;
42912;SDS011;50720;54.324;18.558;2023-11-19T04:04:20;33.67;;;17.67;;
42912;SDS011;50720;54.324;18.558;2023-11-19T04:07:05;34.60;;;17.45;;
42912;SDS011;50720;54.324;18.558;2023-11-19T04:09:48;36.58;;;18.58;;
42912;SDS011;50720;54.324;18.558;2023-11-19T04:12:32;33.70;;;18.42;;
42912;SDS011;50720;54.324;18.558;2023-11-19T04:15:16;35.75;;;18.23;;
42912;SDS011;50720;54.324;18.558;2023-11-19T04:17:59;32.33;;;16.67;;
42912;SDS011;50720;54.324;18.558;2023-11-19T04:20:42;35.88;;;16.33;;
42912;SDS011;50720;54.324;18.558;2023-11-19T04:23:27;31.88;;;16.17;;
42912;SDS011;50720;54.324;18.558;2023-11-19T04:26:11;29.40;;;15.15;;
42912;SDS011;50720;54.324;18.558;2023-11-19T04:28:55;30.60;;;15.05;;
42912;SDS011;50720;54.324;18.558;2023-11-19T04:31:39;34.88;;;16.85;;
42912;SDS011;50720;54.324;18.558;2023-11-19T04:34:23;29.85;;;15.18;;
42912;SDS011;50720;54.324;18.558;2023-11-19T04:37:07;33.45;;;17.23;;
42912;SDS011;50720;54.324;18.558;2023-11-19T04:39:56;30.88;;;16.13;;
42912;SDS011;50720;54.324;18.558;2023-11-19T04:42:39;32.25;;;16.25;;
42912;SDS011;50720;54.324;18.558;2023-11-19T04:45:23;32.00;;;16.27;;
42912;SDS011;50720;54.324;18.558;2023-11-19T04:48:06;31.08;;;15.45;;
42912;SDS011;50720;54.324;18.558;2023-11-19T04:50:50;29.08;;;14.50;;
42912;SDS011;50720;54.324;18.558;2023-11-19T04:53:34;28.77;;;15.30;;
42912;SDS011;50720;54.324;18.558;2023-11-19T04:56:19;30.10;;;16.05;;
42912;SDS011;50720;54.324;18.558;2023-11-19T04:59:04;31.00;;;15.57;;
42912;SDS011;50720;54.324;18.558;2023-11-19T05:01:49;33.65;;;15.55;;
42912;SDS011;50720;54.324;18.558;2023-11-19T05:04:32;38.28;;;16.20;;
42912;SDS011;50720;54.324;18.558;2023-11-19T05:07:16;34.13;;;15.57;;
42912;SDS011;50720;54.324;18.558;2023-11-19T05:10:00;32.78;;;16.02;;
42912;SDS011;50720;54.324;18.558;2023-11-19T05:12:46;32.17;;;15.23;;
42912;SDS011;50720;54.324;18.558;2023-11-19T05:15:30;33.60;;;14.90;;
42912;SDS011;50720;54.324;18.558;2023-11-19T05:18:14;34.97;;;15.18;;
42912;SDS011;50720;54.324;18.558;2023-11-19T05:20:58;32.78;;;16.10;;
42912;SDS011;50720;54.324;18.558;2023-11-19T05:23:41;35.90;;;17.52;;
42912;SDS011;50720;54.324;18.558;2023-11-19T05:26:25;32.10;;;17.20;;
42912;SDS011;50720;54.324;18.558;2023-11-19T05:29:10;30.92;;;15.98;;
42912;SDS011;50720;54.324;18.558;2023-11-19T05:31:53;31.75;;;14.43;;
42912;SDS011;50720;54.324;18.558;2023-11-19T05:34:37;29.85;;;14.80;;
42912;SDS011;50720;54.324;18.558;2023-11-19T05:37:33;28.30;;;13.85;;
42912;SDS011;50720;54.324;18.558;2023-11-19T05:40:17;33.90;;;15.70;;
42912;SDS011;50720;54.324;18.558;2023-11-19T05:43:02;36.63;;;16.40;;
42912;SDS011;50720;54.324;18.558;2023-11-19T05:45:47;34.28;;;15.13;;
42912;SDS011;50720;54.324;18.558;2023-11-19T05:48:30;34.00;;;16.45;;
42912;SDS011;50720;54.324;18.558;2023-11-19T05:51:14;30.42;;;14.82;;
42912;SDS011;50720;54.324;18.558;2023-11-19T05:53:58;30.67;;;14.88;;
42912;SDS011;50720;54.324;18.558;2023-11-19T05:56:41;29.92;;;15.02;;
42912;SDS011;50720;54.324;18.558;2023-11-19T05:59:29;28.27;;;14.85;;
42912;SDS011;50720;54.324;18.558;2023-11-19T06:02:16;27.15;;;13.48;;
42912;SDS011;50720;54.324;18.558;2023-11-19T06:04:59;28.77;;;15.27;;
42912;SDS011;50720;54.324;18.558;2023-11-19T06:07:43;32.08;;;15.10;;
42912;SDS011;50720;54.324;18.558;2023-11-19T06:10:27;32.28;;;14.27;;
42912;SDS011;50720;54.324;18.558;2023-11-19T06:13:12;34.88;;;17.23;;
42912;SDS011;50720;54.324;18.558;2023-11-19T06:15:56;29.98;;;16.48;;
42912;SDS011;50720;54.324;18.558;2023-11-19T06:18:42;33.15;;;16.33;;
42912;SDS011;50720;54.324;18.558;2023-11-19T06:21:26;38.25;;;17.23;;
42912;SDS011;50720;54.324;18.558;2023-11-19T06:24:09;32.97;;;16.77;;
42912;SDS011;50720;54.324;18.558;2023-11-19T06:26:52;31.92;;;15.48;;
42912;SDS011;50720;54.324;18.558;2023-11-19T06:29:36;36.22;;;16.40;;
42912;SDS011;50720;54.324;18.558;2023-11-19T06:32:19;37.38;;;16.73;;
42912;SDS011;50720;54.324;18.558;2023-11-19T06:35:05;35.53;;;16.85;;
42912;SDS011;50720;54.324;18.558;2023-11-19T06:37:51;38.20;;;18.30;;
42912;SDS011;50720;54.324;18.558;2023-11-19T06:40:35;39.65;;;20.88;;
42912;SDS011;50720;54.324;18.558;2023-11-19T06:43:19;43.70;;;20.48;;
42912;SDS011;50720;54.324;18.558;2023-11-19T06:46:03;41.40;;;20.30;;
42912;SDS011;50720;54.324;18.558;2023-11-19T06:48:47;41.38;;;19.10;;
42912;SDS011;50720;54.324;18.558;2023-11-19T06:51:32;47.22;;;21.52;;
42912;SDS011;50720;54.324;18.558;2023-11-19T06:54:15;41.90;;;20.45;;
42912;SDS011;50720;54.324;18.558;2023-11-19T06:56:59;34.58;;;15.80;;
42912;SDS011;50720;54.324;18.558;2023-11-19T06:59:42;37.13;;;18.27;;
42912;SDS011;50720;54.324;18.558;2023-11-19T07:02:26;33.47;;;16.77;;
42912;SDS011;50720;54.324;18.558;2023-11-19T07:05:10;32.85;;;16.75;;
42912;SDS011;50720;54.324;18.558;2023-11-19T07:07:56;32.50;;;15.63;;
42912;SDS011;50720;54.324;18.558;2023-11-19T07:10:39;36.08;;;18.15;;
42912;SDS011;50720;54.324;18.558;2023-11-19T07:13:23;37.65;;;18.48;;
42912;SDS011;50720;54.324;18.558;2023-11-19T07:16:09;35.25;;;16.42;;
42912;SDS011;50720;54.324;18.558;2023-11-19T07:18:53;31.45;;;16.02;;
42912;SDS011;50720;54.324;18.558;2023-11-19T07:21:37;32.95;;;15.88;;
42912;SDS011;50720;54.324;18.558;2023-11-19T07:24:26;31.52;;;17.10;;
42912;SDS011;50720;54.324;18.558;2023-11-19T07:27:10;34.05;;;15.48;;
42912;SDS011;50720;54.324;18.558;2023-11-19T07:29:55;39.50;;;19.13;;
42912;SDS011;50720;54.324;18.558;2023-11-19T07:32:39;32.80;;;17.42;;
42912;SDS011;50720;54.324;18.558;2023-11-19T07:35:23;42.35;;;19.02;;
42912;SDS011;50720;54.324;18.558;2023-11-19T07:38:06;35.80;;;18.02;;
42912;SDS011;50720;54.324;18.558;2023-11-19T07:40:51;39.40;;;18.55;;
42912;SDS011;50720;54.324;18.558;2023-11-19T07:43:39;36.53;;;18.48;;
42912;SDS011;50720;54.324;18.558;2023-11-19T07:46:23;34.03;;;16.88;;
42912;SDS011;50720;54.324;18.558;2023-11-19T07:49:06;38.50;;;17.67;;
42912;SDS011;50720;54.324;18.558;2023-11-19T07:51:51;33.50;;;17.42;;
42912;SDS011;50720;54.324;18.558;2023-11-19T07:54:34;36.10;;;17.70;;
42912;SDS011;50720;54.324;18.558;2023-11-19T07:57:19;35.33;;;17.45;;
42912;SDS011;50720;54.324;18.558;2023-11-19T08:00:03;31.80;;;17.73;;
42912;SDS011;50720;54.324;18.558;2023-11-19T08:02:47;37.92;;;18.17;;
42912;SDS011;50720;54.324;18.558;2023-11-19T08:05:31;36.20;;;15.98;;
42912;SDS011;50720;54.324;18.558;2023-11-19T08:08:14;29.20;;;15.27;;
42912;SDS011;50720;54.324;18.558;2023-11-19T08:10:58;32.85;;;15.43;;
42912;SDS011;50720;54.324;18.558;2023-11-19T08:13:43;29.60;;;16.38;;
42912;SDS011;50720;54.324;18.558;2023-11-19T08:16:27;30.52;;;17.10;;
42912;SDS011;50720;54.324;18.558;2023-11-19T08:19:10;28.05;;;15.45;;
42912;SDS011;50720;54.324;18.558;2023-11-19T08:21:54;29.52;;;15.40;;
42912;SDS011;50720;54.324;18.558;2023-11-19T08:24:39;28.33;;;14.45;;
42912;SDS011;50720;54.324;18.558;2023-11-19T08:27:23;25.65;;;14.35;;
42912;SDS011;50720;54.324;18.558;2023-11-19T08:30:10;30.10;;;14.52;;
42912;SDS011;50720;54.324;18.558;2023-11-19T08:32:54;27.52;;;15.35;;
42912;SDS011;50720;54.324;18.558;2023-11-19T08:35:38;29.27;;;13.82;;
42912;SDS011;50720;54.324;18.558;2023-11-19T08:38:21;24.40;;;13.98;;
42912;SDS011;50720;54.324;18.558;2023-11-19T08:41:08;30.92;;;15.23;;
42912;SDS011;50720;54.324;18.558;2023-11-19T08:43:52;27.52;;;14.25;;
42912;SDS011;50720;54.324;18.558;2023-11-19T08:46:37;28.02;;;15.13;;
42912;SDS011;50720;54.324;18.558;2023-11-19T08:49:21;26.70;;;14.63;;
42912;SDS011;50720;54.324;18.558;2023-11-19T08:52:05;28.73;;;15.18;;
42912;SDS011;50720;54.324;18.558;2023-11-19T08:54:50;31.77;;;14.98;;
42912;SDS011;50720;54.324;18.558;2023-11-19T08:57:34;33.08;;;15.82;;
42912;SDS011;50720;54.324;18.558;2023-11-19T09:00:17;27.95;;;14.75;;
42912;SDS011;50720;54.324;18.558;2023-11-19T09:03:04;30.83;;;15.20;;
42912;SDS011;50720;54.324;18.558;2023-11-19T09:05:48;28.08;;;16.50;;
42912;SDS011;50720;54.324;18.558;2023-11-19T09:08:32;31.23;;;14.93;;
42912;SDS011;50720;54.324;18.558;2023-11-19T09:11:15;29.13;;;14.70;;
42912;SDS011;50720;54.324;18.558;2023-11-19T09:13:59;33.35;;;17.35;;
42912;SDS011;50720;54.324;18.558;2023-11-19T09:16:43;31.50;;;15.20;;
42912;SDS011;50720;54.324;18.558;2023-11-19T09:19:28;30.95;;;15.38;;
42912;SDS011;50720;54.324;18.558;2023-11-19T09:22:11;27.85;;;15.25;;
42912;SDS011;50720;54.324;18.558;2023-11-19T09:24:55;26.17;;;13.77;;
42912;SDS011;50720;54.324;18.558;2023-11-19T09:27:41;26.65;;;15.13;;
42912;SDS011;50720;54.324;18.558;2023-11-19T09:30:25;28.58;;;14.07;;
42912;SDS011;50720;54.324;18.558;2023-11-19T09:33:08;30.55;;;13.07;;
42912;SDS011;50720;54.324;18.558;2023-11-19T09:35:53;29.20;;;15.70;;
42912;SDS011;50720;54.324;18.558;2023-11-19T09:38:36;26.52;;;14.65;;
42912;SDS011;50720;54.324;18.558;2023-11-19T09:41:21;29.75;;;14.63;;
42912;SDS011;50720;54.324;18.558;2023-11-19T09:44:05;31.00;;;15.82;;
42912;SDS011;50720;54.324;18.558;2023-11-19T09:46:49;33.53;;;16.80;;
42912;SDS011;50720;54.324;18.558;2023-11-19T09:49:32;32.97;;;15.38;;
42912;SDS011;50720;54.324;18.558;2023-11-19T09:52:20;34.45;;;16.75;;
42912;SDS011;50720;54.324;18.558;2023-11-19T09:55:03;36.10;;;17.85;;
42912;SDS011;50720;54.324;18.558;2023-11-19T09:57:48;35.63;;;17.05;;
42912;SDS011;50720;54.324;18.558;2023-11-19T10:00:35;32.95;;;17.73;;
42912;SDS011;50720;54.324;18.558;2023-11-19T10:03:19;35.20;;;18.80;;
42912;SDS011;50720;54.324;18.558;2023-11-19T10:06:06;31.85;;;17.15;;
42912;SDS011;50720;54.324;18.558;2023-11-19T10:08:52;35.22;;;19.60;;
42912;SDS011;50720;54.324;18.558;2023-11-19T10:11:36;35.05;;;18.95;;
42912;SDS011;50720;54.324;18.558;2023-11-19T10:14:21;37.53;;;18.60;;
42912;SDS011;50720;54.324;18.558;2023-11-19T10:17:07;34.00;;;18.67;;
42912;SDS011;50720;54.324;18.558;2023-11-19T10:19:50;37.00;;;19.90;;
42912;SDS011;50720;54.324;18.558;2023-11-19T10:22:36;39.92;;;19.08;;
42912;SDS011;50720;54.324;18.558;2023-11-19T10:25:25;34.47;;;17.30;;
42912;SDS011;50720;54.324;18.558;2023-11-19T10:28:09;39.35;;;18.30;;
42912;SDS011;50720;54.324;18.558;2023-11-19T10:30:55;45.63;;;20.67;;
42912;SDS011;50720;54.324;18.558;2023-11-19T10:33:39;43.10;;;22.85;;
42912;SDS011;50720;54.324;18.558;2023-11-19T10:36:26;43.88;;;21.30;;
42912;SDS011;50720;54.324;18.558;2023-11-19T10:39:22;41.78;;;21.90;;
42912;SDS011;50720;54.324;18.558;2023-11-19T10:42:16;37.85;;;18.92;;
42912;SDS011;50720;54.324;18.558;2023-11-19T10:44:59;49.00;;;21.42;;
42912;SDS011;50720;54.324;18.558;2023-11-19T10:47:43;42.40;;;20.73;;
42912;SDS011;50720;54.324;18.558;2023-11-19T10:50:27;41.90;;;21.00;;
42912;SDS011;50720;54.324;18.558;2023-11-19T10:53:11;42.72;;;20.30;;
42912;SDS011;50720;54.324;18.558;2023-11-19T10:55:55;46.60;;;21.42;;
42912;SDS011;50720;54.324;18.558;2023-11-19T10:58:44;45.80;;;21.13;;
42912;SDS011;50720;54.324;18.558;2023-11-19T11:01:32;48.40;;;23.00;;
42912;SDS011;50720;54.324;18.558;2023-11-19T11:04:22;49.17;;;21.38;;
42912;SDS011;50720;54.324;18.558;2023-11-19T11:07:08;44.35;;;19.67;;
42912;SDS011;50720;54.324;18.558;2023-11-19T11:09:52;53.78;;;24.33;;
42912;SDS011;50720;54.324;18.558;2023-11-19T11:12:36;45.72;;;21.98;;
42912;SDS011;50720;54.324;18.558;2023-11-19T11:15:22;47.28;;;21.20;;
42912;SDS011;50720;54.324;18.558;2023-11-19T11:18:09;42.97;;;19.67;;
42912;SDS011;50720;54.324;18.558;2023-11-19T11:20:54;49.45;;;26.05;;
42912;SDS011;50720;54.324;18.558;2023-11-19T11:26:58;47.90;;;21.98;;
42912;SDS011;50720;54.324;18.558;2023-11-19T11:29:56;48.97;;;21.23;;
42912;SDS011;50720;54.324;18.558;2023-11-19T11:32:50;47.22;;;21.52;;
42912;SDS011;50720;54.324;18.558;2023-11-19T11:35:43;49.45;;;22.63;;
42912;SDS011;50720;54.324;18.558;2023-11-19T11:38:36;50.53;;;23.25;;
42912;SDS011;50720;54.324;18.558;2023-11-19T11:41:21;54.47;;;23.13;;
42912;SDS011;50720;54.324;18.558;2023-11-19T11:44:10;45.28;;;23.25;;
42912;SDS011;50720;54.324;18.558;2023-11-19T11:46:54;51.20;;;22.10;;
42912;SDS011;50720;54.324;18.558;2023-11-19T11:49:40;57.45;;;24.50;;
42912;SDS011;50720;54.324;18.558;2023-11-19T11:52:23;55.67;;;26.17;;
42912;SDS011;50720;54.324;18.558;2023-11-19T11:55:08;52.17;;;23.50;;
42912;SDS011;50720;54.324;18.558;2023-11-19T11:57:51;57.03;;;27.48;;
42912;SDS011;50720;54.324;18.558;2023-11-19T12:00:37;57.22;;;27.55;;
42912;SDS011;50720;54.324;18.558;2023-11-19T12:03:21;53.13;;;24.75;;
42912;SDS011;50720;54.324;18.558;2023-11-19T12:06:07;61.40;;;28.90;;
42912;SDS011;50720;54.324;18.558;2023-11-19T12:08:51;57.70;;;25.65;;
42912;SDS011;50720;54.324;18.558;2023-11-19T12:11:36;60.47;;;27.20;;
42912;SDS011;50720;54.324;18.558;2023-11-19T12:14:26;65.57;;;25.85;;
42912;SDS011;50720;54.324;18.558;2023-11-19T12:17:48;53.90;;;23.20;;
42912;SDS011;50720;54.324;18.558;2023-11-19T12:20:33;60.25;;;27.77;;
42912;SDS011;50720;54.324;18.558;2023-11-19T12:23:21;57.00;;;25.63;;
42912;SDS011;50720;54.324;18.558;2023-11-19T12:26:05;64.00;;;27.95;;
42912;SDS011;50720;54.324;18.558;2023-11-19T12:28:57;59.17;;;26.42;;
42912;SDS011;50720;54.324;18.558;2023-11-19T12:31:43;60.92;;;26.35;;
42912;SDS011;50720;54.324;18.558;2023-11-19T12:34:27;69.65;;;26.98;;
42912;SDS011;50720;54.324;18.558;2023-11-19T12:37:11;69.68;;;28.42;;
42912;SDS011;50720;54.324;18.558;2023-11-19T12:39:56;68.32;;;28.08;;
42912;SDS011;50720;54.324;18.558;2023-11-19T12:42:40;70.93;;;29.73;;
42912;SDS011;50720;54.324;18.558;2023-11-19T12:45:24;69.35;;;28.77;;
42912;SDS011;50720;54.324;18.558;2023-11-19T12:48:08;72.32;;;30.48;;
42912;SDS011;50720;54.324;18.558;2023-11-19T12:50:53;70.60;;;29.83;;
42912;SDS011;50720;54.324;18.558;2023-11-19T12:53:46;80.78;;;31.38;;
42912;SDS011;50720;54.324;18.558;2023-11-19T12:56:33;74.15;;;27.73;;
42912;SDS011;50720;54.324;18.558;2023-11-19T12:59:18;66.65;;;27.92;;
42912;SDS011;50720;54.324;18.558;2023-11-19T13:02:01;72.95;;;29.67;;
42912;SDS011;50720;54.324;18.558;2023-11-19T13:04:47;81.50;;;32.97;;
42912;SDS011;50720;54.324;18.558;2023-11-19T13:07:31;77.07;;;32.17;;
42912;SDS011;50720;54.324;18.558;2023-11-19T13:10:15;76.55;;;30.45;;
42912;SDS011;50720;54.324;18.558;2023-11-19T13:13:04;76.15;;;33.10;;
42912;SDS011;50720;54.324;18.558;2023-11-19T13:15:50;86.28;;;34.92;;
42912;SDS011;50720;54.324;18.558;2023-11-19T13:18:33;77.85;;;31.35;;
42912;SDS011;50720;54.324;18.558;2023-11-19T13:21:19;80.35;;;31.42;;
42912;SDS011;50720;54.324;18.558;2023-11-19T13:24:03;81.97;;;33.20;;
42912;SDS011;50720;54.324;18.558;2023-11-19T13:26:47;96.50;;;36.58;;
42912;SDS011;50720;54.324;18.558;2023-11-19T13:29:32;90.53;;;35.05;;
42912;SDS011;50720;54.324;18.558;2023-11-19T13:32:17;94.13;;;35.17;;
42912;SDS011;50720;54.324;18.558;2023-11-19T13:35:01;97.55;;;37.83;;
42912;SDS011;50720;54.324;18.558;2023-11-19T13:37:44;87.05;;;32.25;;
42912;SDS011;50720;54.324;18.558;2023-11-19T13:40:29;82.05;;;30.65;;
42912;SDS011;50720;54.324;18.558;2023-11-19T13:43:12;89.97;;;35.10;;
42912;SDS011;50720;54.324;18.558;2023-11-19T13:45:57;89.32;;;34.05;;
42912;SDS011;50720;54.324;18.558;2023-11-19T13:48:41;96.18;;;36.92;;
42912;SDS011;50720;54.324;18.558;2023-11-19T13:51:25;84.60;;;34.15;;
42912;SDS011;50720;54.324;18.558;2023-11-19T13:54:08;84.93;;;32.05;;
42912;SDS011;50720;54.324;18.558;2023-11-19T13:56:54;89.18;;;34.60;;
42912;SDS011;50720;54.324;18.558;2023-11-19T13:59:39;79.10;;;32.15;;
42912;SDS011;50720;54.324;18.558;2023-11-19T14:02:25;81.38;;;34.88;;
42912;SDS011;50720;54.324;18.558;2023-11-19T14:05:08;93.03;;;38.53;;
42912;SDS011;50720;54.324;18.558;2023-11-19T14:07:54;95.53;;;38.20;;
42912;SDS011;50720;54.324;18.558;2023-11-19T14:10:38;101.45;;;38.88;;
42912;SDS011;50720;54.324;18.558;2023-11-19T14:13:22;85.65;;;32.97;;
42912;SDS011;50720;54.324;18.558;2023-11-19T14:16:06;95.90;;;36.25;;
42912;SDS011;50720;54.324;18.558;2023-11-19T14:18:52;84.20;;;32.75;;
42912;SDS011;50720;54.324;18.558;2023-11-19T14:21:36;91.47;;;35.70;;
42912;SDS011;50720;54.324;18.558;2023-11-19T14:24:19;85.82;;;34.08;;
42912;SDS011;50720;54.324;18.558;2023-11-19T14:27:04;97.80;;;34.03;;
42912;SDS011;50720;54.324;18.558;2023-11-19T14:29:48;89.07;;;35.15;;
42912;SDS011;50720;54.324;18.558;2023-11-19T14:32:32;105.28;;;35.72;;
42912;SDS011;50720;54.324;18.558;2023-11-19T14:35:17;89.40;;;35.08;;
42912;SDS011;50720;54.324;18.558;2023-11-19T14:38:01;81.97;;;33.17;;
42912;SDS011;50720;54.324;18.558;2023-11-19T14:40:47;92.90;;;34.72;;
42912;SDS011;50720;54.324;18.558;2023-11-19T14:43:30;90.85;;;34.83;;
42912;SDS011;50720;54.324;18.558;2023-11-19T14:46:13;99.70;;;33.60;;
42912;SDS011;50720;54.324;18.558;2023-11-19T14:48:57;86.68;;;32.20;;
42912;SDS011;50720;54.324;18.558;2023-11-19T14:51:43;94.50;;;33.38;;
42912;SDS011;50720;54.324;18.558;2023-11-19T14:54:29;96.00;;;36.22;;
42912;SDS011;50720;54.324;18.558;2023-11-19T14:57:13;85.18;;;33.08;;
42912;SDS011;50720;54.324;18.558;2023-11-19T14:59:57;101.40;;;35.75;;
42912;SDS011;50720;54.324;18.558;2023-11-19T15:02:41;94.03;;;35.83;;
42912;SDS011;50720;54.324;18.558;2023-11-19T15:05:24;102.07;;;42.60;;
42912;SDS011;50720;54.324;18.558;2023-11-19T15:08:11;90.45;;;33.42;;
42912;SDS011;50720;54.324;18.558;2023-11-19T15:10:55;87.63;;;30.63;;
42912;SDS011;50720;54.324;18.558;2023-11-19T15:13:42;90.35;;;34.85;;
42912;SDS011;50720;54.324;18.558;2023-11-19T15:16:26;89.65;;;34.33;;
42912;SDS011;50720;54.324;18.558;2023-11-19T15:19:13;87.00;;;34.30;;
42912;SDS011;50720;54.324;18.558;2023-11-19T15:21:57;94.75;;;34.30;;
42912;SDS011;50720;54.324;18.558;2023-11-19T15:24:42;83.88;;;32.05;;
42912;SDS011;50720;54.324;18.558;2023-11-19T15:27:25;96.75;;;34.38;;
42912;SDS011;50720;54.324;18.558;2023-11-19T15:30:09;87.20;;;36.55;;
42912;SDS011;50720;54.324;18.558;2023-11-19T15:32:54;88.97;;;36.45;;
42912;SDS011;50720;54.324;18.558;2023-11-19T15:35:38;93.90;;;34.67;;
42912;SDS011;50720;54.324;18.558;2023-11-19T15:38:22;85.32;;;31.73;;
42912;SDS011;50720;54.324;18.558;2023-11-19T15:41:07;89.18;;;37.22;;
42912;SDS011;50720;54.324;18.558;2023-11-19T15:43:54;90.00;;;31.60;;
42912;SDS011;50720;54.324;18.558;2023-11-19T15:46:39;92.60;;;35.25;;
42912;SDS011;50720;54.324;18.558;2023-11-19T15:49:23;101.30;;;37.17;;
42912;SDS011;50720;54.324;18.558;2023-11-19T15:52:07;86.82;;;34.53;;